sensor_id;sensor_type;location;lat;lon;timestamp;P1;durP1;ratioP1;P2;durP2;ratioP2
422;SDS011;198;48.752;9.180;2024-03-08T00:00:58;47.30;;;16.27;;
422;SDS011;198;48.752;9.180;2024-03-08T00:03:24;42.47;;;15.97;;
422;SDS011;198;48.752;9.180;2024-03-08T00:05:49;40.27;;;15.00;;
422;SDS011;198;48.752;9.180;2024-03-08T00:08:15;40.77;;;15.57;;
422;SDS011;198;48.752;9.180;2024-03-08T00:10:40;39.67;;;16.23;;
422;SDS011;198;48.752;9.180;2024-03-08T00:13:06;42.30;;;16.00;;
422;SDS011;198;48.752;9.180;2024-03-08T00:15:31;34.80;;;14.33;;
422;SDS011;198;48.752;9.180;2024-03-08T00:17:57;44.80;;;16.27;;
422;SDS011;198;48.752;9.180;2024-03-08T00:20:23;44.40;;;16.50;;
422;SDS011;198;48.752;9.180;2024-03-08T00:22:48;40.13;;;14.60;;
422;SDS011;198;48.752;9.180;2024-03-08T00:25:14;43.43;;;14.93;;
422;SDS011;198;48.752;9.180;2024-03-08T00:27:40;37.90;;;15.10;;
422;SDS011;198;48.752;9.180;2024-03-08T00:30:06;34.67;;;13.40;;
422;SDS011;198;48.752;9.180;2024-03-08T00:32:33;43.10;;;16.53;;
422;SDS011;198;48.752;9.180;2024-03-08T00:34:58;43.63;;;15.47;;
422;SDS011;198;48.752;9.180;2024-03-08T00:37:24;46.90;;;15.93;;
422;SDS011;198;48.752;9.180;2024-03-08T00:39:50;40.80;;;15.83;;
422;SDS011;198;48.752;9.180;2024-03-08T00:42:16;36.07;;;15.30;;
422;SDS011;198;48.752;9.180;2024-03-08T00:44:43;38.10;;;15.43;;
422;SDS011;198;48.752;9.180;2024-03-08T00:47:08;44.83;;;14.73;;
422;SDS011;198;48.752;9.180;2024-03-08T00:49:34;39.70;;;14.23;;
422;SDS011;198;48.752;9.180;2024-03-08T00:52:02;37.93;;;14.70;;
422;SDS011;198;48.752;9.180;2024-03-08T00:54:30;38.13;;;16.07;;
422;SDS011;198;48.752;9.180;2024-03-08T00:56:56;38.23;;;15.30;;
422;SDS011;198;48.752;9.180;2024-03-08T00:59:21;42.60;;;14.37;;
422;SDS011;198;48.752;9.180;2024-03-08T01:01:47;39.87;;;15.77;;
422;SDS011;198;48.752;9.180;2024-03-08T01:04:13;39.70;;;16.17;;
422;SDS011;198;48.752;9.180;2024-03-08T01:06:38;29.23;;;13.50;;
422;SDS011;198;48.752;9.180;2024-03-08T01:09:04;46.27;;;17.50;;
422;SDS011;198;48.752;9.180;2024-03-08T01:11:32;39.83;;;15.40;;
422;SDS011;198;48.752;9.180;2024-03-08T01:13:58;41.20;;;15.40;;
422;SDS011;198;48.752;9.180;2024-03-08T01:16:24;38.97;;;16.37;;
422;SDS011;198;48.752;9.180;2024-03-08T01:18:50;47.00;;;15.00;;
422;SDS011;198;48.752;9.180;2024-03-08T01:21:15;38.50;;;15.17;;
422;SDS011;198;48.752;9.180;2024-03-08T01:23:41;41.90;;;14.53;;
422;SDS011;198;48.752;9.180;2024-03-08T01:26:07;40.43;;;14.90;;
422;SDS011;198;48.752;9.180;2024-03-08T01:28:32;36.40;;;14.87;;
422;SDS011;198;48.752;9.180;2024-03-08T01:30:59;37.97;;;15.97;;
422;SDS011;198;48.752;9.180;2024-03-08T01:33:25;46.00;;;16.87;;
422;SDS011;198;48.752;9.180;2024-03-08T01:35:52;40.33;;;15.53;;
422;SDS011;198;48.752;9.180;2024-03-08T01:38:21;38.47;;;15.23;;
422;SDS011;198;48.752;9.180;2024-03-08T01:40:47;40.50;;;16.17;;
422;SDS011;198;48.752;9.180;2024-03-08T01:43:17;37.27;;;15.57;;
422;SDS011;198;48.752;9.180;2024-03-08T01:45:46;40.50;;;16.03;;
422;SDS011;198;48.752;9.180;2024-03-08T01:48:13;39.80;;;15.57;;
422;SDS011;198;48.752;9.180;2024-03-08T01:50:39;34.57;;;15.03;;
422;SDS011;198;48.752;9.180;2024-03-08T01:53:06;31.17;;;13.47;;
422;SDS011;198;48.752;9.180;2024-03-08T01:55:35;40.43;;;15.90;;
422;SDS011;198;48.752;9.180;2024-03-08T01:58:03;42.63;;;16.13;;
422;SDS011;198;48.752;9.180;2024-03-08T02:00:30;34.70;;;14.90;;
422;SDS011;198;48.752;9.180;2024-03-08T02:03:00;37.53;;;15.00;;
422;SDS011;198;48.752;9.180;2024-03-08T02:05:26;31.43;;;13.00;;
422;SDS011;198;48.752;9.180;2024-03-08T02:07:52;43.37;;;16.30;;
422;SDS011;198;48.752;9.180;2024-03-08T02:10:18;32.37;;;14.43;;
422;SDS011;198;48.752;9.180;2024-03-08T02:12:44;32.83;;;14.83;;
422;SDS011;198;48.752;9.180;2024-03-08T02:15:12;36.90;;;15.00;;
422;SDS011;198;48.752;9.180;2024-03-08T02:17:37;32.33;;;14.30;;
422;SDS011;198;48.752;9.180;2024-03-08T02:20:03;37.60;;;13.43;;
422;SDS011;198;48.752;9.180;2024-03-08T02:22:30;31.60;;;12.50;;
422;SDS011;198;48.752;9.180;2024-03-08T02:24:58;40.43;;;15.40;;
422;SDS011;198;48.752;9.180;2024-03-08T02:27:26;28.30;;;11.73;;
422;SDS011;198;48.752;9.180;2024-03-08T02:29:56;37.20;;;14.90;;
422;SDS011;198;48.752;9.180;2024-03-08T02:32:25;31.50;;;12.60;;
422;SDS011;198;48.752;9.180;2024-03-08T02:34:50;40.27;;;15.57;;
422;SDS011;198;48.752;9.180;2024-03-08T02:37:20;32.83;;;13.77;;
422;SDS011;198;48.752;9.180;2024-03-08T02:39:46;33.17;;;13.43;;
422;SDS011;198;48.752;9.180;2024-03-08T02:42:12;33.40;;;12.07;;
422;SDS011;198;48.752;9.180;2024-03-08T02:44:38;34.30;;;13.60;;
422;SDS011;198;48.752;9.180;2024-03-08T02:47:08;37.67;;;13.30;;
422;SDS011;198;48.752;9.180;2024-03-08T02:49:34;43.50;;;15.80;;
422;SDS011;198;48.752;9.180;2024-03-08T02:52:02;36.20;;;13.93;;
422;SDS011;198;48.752;9.180;2024-03-08T02:54:27;36.10;;;14.30;;
422;SDS011;198;48.752;9.180;2024-03-08T02:56:53;41.63;;;15.10;;
422;SDS011;198;48.752;9.180;2024-03-08T02:59:18;44.33;;;14.43;;
422;SDS011;198;48.752;9.180;2024-03-08T03:01:44;31.17;;;12.93;;
422;SDS011;198;48.752;9.180;2024-03-08T03:04:09;31.07;;;13.10;;
422;SDS011;198;48.752;9.180;2024-03-08T03:06:35;31.40;;;12.77;;
422;SDS011;198;48.752;9.180;2024-03-08T03:09:01;37.43;;;14.07;;
422;SDS011;198;48.752;9.180;2024-03-08T03:11:26;31.40;;;13.60;;
422;SDS011;198;48.752;9.180;2024-03-08T03:13:52;33.43;;;13.00;;
422;SDS011;198;48.752;9.180;2024-03-08T03:16:18;38.37;;;13.83;;
422;SDS011;198;48.752;9.180;2024-03-08T03:18:45;40.67;;;14.43;;
422;SDS011;198;48.752;9.180;2024-03-08T03:21:11;35.03;;;12.90;;
422;SDS011;198;48.752;9.180;2024-03-08T03:23:38;40.37;;;14.33;;
422;SDS011;198;48.752;9.180;2024-03-08T03:26:09;37.77;;;14.13;;
422;SDS011;198;48.752;9.180;2024-03-08T03:28:38;35.37;;;14.23;;
422;SDS011;198;48.752;9.180;2024-03-08T03:31:05;39.20;;;15.70;;
422;SDS011;198;48.752;9.180;2024-03-08T03:33:31;40.63;;;15.70;;
422;SDS011;198;48.752;9.180;2024-03-08T03:35:59;33.70;;;14.13;;
422;SDS011;198;48.752;9.180;2024-03-08T03:38:25;34.90;;;12.93;;
422;SDS011;198;48.752;9.180;2024-03-08T03:40:52;34.57;;;12.33;;
422;SDS011;198;48.752;9.180;2024-03-08T03:43:22;35.37;;;14.40;;
422;SDS011;198;48.752;9.180;2024-03-08T03:45:48;41.30;;;15.20;;
422;SDS011;198;48.752;9.180;2024-03-08T03:48:13;38.33;;;15.23;;
422;SDS011;198;48.752;9.180;2024-03-08T03:50:39;38.10;;;14.63;;
422;SDS011;198;48.752;9.180;2024-03-08T03:53:05;35.17;;;15.00;;
422;SDS011;198;48.752;9.180;2024-03-08T03:55:35;43.13;;;15.40;;
422;SDS011;198;48.752;9.180;2024-03-08T03:58:03;34.40;;;13.10;;
422;SDS011;198;48.752;9.180;2024-03-08T04:00:29;42.20;;;14.70;;
422;SDS011;198;48.752;9.180;2024-03-08T04:02:54;39.80;;;14.70;;
422;SDS011;198;48.752;9.180;2024-03-08T04:05:23;55.10;;;17.67;;
422;SDS011;198;48.752;9.180;2024-03-08T04:07:49;40.83;;;16.00;;
422;SDS011;198;48.752;9.180;2024-03-08T04:10:14;51.83;;;16.53;;
422;SDS011;198;48.752;9.180;2024-03-08T04:12:40;40.37;;;15.93;;
422;SDS011;198;48.752;9.180;2024-03-08T04:15:05;41.43;;;14.73;;
422;SDS011;198;48.752;9.180;2024-03-08T04:17:32;40.20;;;15.10;;
422;SDS011;198;48.752;9.180;2024-03-08T04:20:02;39.17;;;16.33;;
422;SDS011;198;48.752;9.180;2024-03-08T04:22:37;47.10;;;17.50;;
422;SDS011;198;48.752;9.180;2024-03-08T04:25:04;38.20;;;14.77;;
422;SDS011;198;48.752;9.180;2024-03-08T04:27:31;38.37;;;14.57;;
422;SDS011;198;48.752;9.180;2024-03-08T04:29:57;37.43;;;15.90;;
422;SDS011;198;48.752;9.180;2024-03-08T04:32:24;47.80;;;16.20;;
422;SDS011;198;48.752;9.180;2024-03-08T04:34:49;38.83;;;15.60;;
422;SDS011;198;48.752;9.180;2024-03-08T04:37:15;33.13;;;14.30;;
422;SDS011;198;48.752;9.180;2024-03-08T04:39:46;43.73;;;16.30;;
422;SDS011;198;48.752;9.180;2024-03-08T04:42:11;48.37;;;17.37;;
422;SDS011;198;48.752;9.180;2024-03-08T04:44:38;35.67;;;15.30;;
422;SDS011;198;48.752;9.180;2024-03-08T04:47:04;38.63;;;15.67;;
422;SDS011;198;48.752;9.180;2024-03-08T04:49:33;38.67;;;14.47;;
422;SDS011;198;48.752;9.180;2024-03-08T04:52:02;37.17;;;14.33;;
422;SDS011;198;48.752;9.180;2024-03-08T04:54:28;51.53;;;17.53;;
422;SDS011;198;48.752;9.180;2024-03-08T04:56:53;46.40;;;16.83;;
422;SDS011;198;48.752;9.180;2024-03-08T04:59:19;40.50;;;15.90;;
422;SDS011;198;48.752;9.180;2024-03-08T05:01:44;47.60;;;16.43;;
422;SDS011;198;48.752;9.180;2024-03-08T05:04:10;43.70;;;16.80;;
422;SDS011;198;48.752;9.180;2024-03-08T05:06:35;41.37;;;17.37;;
422;SDS011;198;48.752;9.180;2024-03-08T05:09:01;42.80;;;15.47;;
422;SDS011;198;48.752;9.180;2024-03-08T05:11:38;40.63;;;15.80;;
422;SDS011;198;48.752;9.180;2024-03-08T05:14:10;39.33;;;16.23;;
422;SDS011;198;48.752;9.180;2024-03-08T05:16:41;49.37;;;17.53;;
422;SDS011;198;48.752;9.180;2024-03-08T05:19:13;37.50;;;14.63;;
422;SDS011;198;48.752;9.180;2024-03-08T05:21:43;31.37;;;14.30;;
422;SDS011;198;48.752;9.180;2024-03-08T05:24:12;42.50;;;17.07;;
422;SDS011;198;48.752;9.180;2024-03-08T05:26:38;40.47;;;16.00;;
422;SDS011;198;48.752;9.180;2024-03-08T05:29:04;43.40;;;16.40;;
422;SDS011;198;48.752;9.180;2024-03-08T05:31:30;36.60;;;16.77;;
422;SDS011;198;48.752;9.180;2024-03-08T05:34:07;41.10;;;17.17;;
422;SDS011;198;48.752;9.180;2024-03-08T05:36:35;46.23;;;18.10;;
422;SDS011;198;48.752;9.180;2024-03-08T05:39:00;40.70;;;16.33;;
422;SDS011;198;48.752;9.180;2024-03-08T05:41:26;44.70;;;16.80;;
422;SDS011;198;48.752;9.180;2024-03-08T05:43:51;44.63;;;17.40;;
422;SDS011;198;48.752;9.180;2024-03-08T05:46:16;37.10;;;15.80;;
422;SDS011;198;48.752;9.180;2024-03-08T05:48:44;39.10;;;15.60;;
422;SDS011;198;48.752;9.180;2024-03-08T05:51:10;53.67;;;18.70;;
422;SDS011;198;48.752;9.180;2024-03-08T05:53:35;46.30;;;17.00;;
422;SDS011;198;48.752;9.180;2024-03-08T05:56:00;50.53;;;17.43;;
422;SDS011;198;48.752;9.180;2024-03-08T05:58:27;39.00;;;15.80;;
422;SDS011;198;48.752;9.180;2024-03-08T06:00:55;43.07;;;17.20;;
422;SDS011;198;48.752;9.180;2024-03-08T06:03:20;54.17;;;17.93;;
422;SDS011;198;48.752;9.180;2024-03-08T06:05:47;36.20;;;14.60;;
422;SDS011;198;48.752;9.180;2024-03-08T06:08:15;38.17;;;16.13;;
422;SDS011;198;48.752;9.180;2024-03-08T06:10:41;41.07;;;15.60;;
422;SDS011;198;48.752;9.180;2024-03-08T06:13:07;37.13;;;15.10;;
422;SDS011;198;48.752;9.180;2024-03-08T06:15:32;35.00;;;15.80;;
422;SDS011;198;48.752;9.180;2024-03-08T06:17:59;36.57;;;14.57;;
422;SDS011;198;48.752;9.180;2024-03-08T06:20:25;45.03;;;16.30;;
422;SDS011;198;48.752;9.180;2024-03-08T06:22:51;47.13;;;17.20;;
422;SDS011;198;48.752;9.180;2024-03-08T06:25:17;45.67;;;17.53;;
422;SDS011;198;48.752;9.180;2024-03-08T06:27:42;43.27;;;16.63;;
422;SDS011;198;48.752;9.180;2024-03-08T06:30:09;38.73;;;15.47;;
422;SDS011;198;48.752;9.180;2024-03-08T06:32:35;45.80;;;16.77;;
422;SDS011;198;48.752;9.180;2024-03-08T06:35:02;47.27;;;17.10;;
422;SDS011;198;48.752;9.180;2024-03-08T06:37:31;51.27;;;16.77;;
422;SDS011;198;48.752;9.180;2024-03-08T06:39:57;42.20;;;16.60;;
422;SDS011;198;48.752;9.180;2024-03-08T06:42:23;41.73;;;18.20;;
422;SDS011;198;48.752;9.180;2024-03-08T06:44:48;41.80;;;15.87;;
422;SDS011;198;48.752;9.180;2024-03-08T06:47:17;47.53;;;17.50;;
422;SDS011;198;48.752;9.180;2024-03-08T06:49:42;51.10;;;17.40;;
422;SDS011;198;48.752;9.180;2024-03-08T06:52:08;40.80;;;16.23;;
422;SDS011;198;48.752;9.180;2024-03-08T06:54:35;40.90;;;16.80;;
422;SDS011;198;48.752;9.180;2024-03-08T06:57:01;49.20;;;16.90;;
422;SDS011;198;48.752;9.180;2024-03-08T06:59:30;39.13;;;15.53;;
422;SDS011;198;48.752;9.180;2024-03-08T07:01:56;46.03;;;17.13;;
422;SDS011;198;48.752;9.180;2024-03-08T07:04:24;39.90;;;14.60;;
422;SDS011;198;48.752;9.180;2024-03-08T07:06:53;35.80;;;15.53;;
422;SDS011;198;48.752;9.180;2024-03-08T07:09:19;40.43;;;14.30;;
422;SDS011;198;48.752;9.180;2024-03-08T07:11:44;33.03;;;15.00;;
422;SDS011;198;48.752;9.180;2024-03-08T07:14:11;42.50;;;15.27;;
422;SDS011;198;48.752;9.180;2024-03-08T07:16:37;31.07;;;14.63;;
422;SDS011;198;48.752;9.180;2024-03-08T07:19:04;37.00;;;13.77;;
422;SDS011;198;48.752;9.180;2024-03-08T07:21:30;35.47;;;14.53;;
422;SDS011;198;48.752;9.180;2024-03-08T07:23:56;40.07;;;16.50;;
422;SDS011;198;48.752;9.180;2024-03-08T07:26:24;48.83;;;16.70;;
422;SDS011;198;48.752;9.180;2024-03-08T07:28:50;38.60;;;14.77;;
422;SDS011;198;48.752;9.180;2024-03-08T07:31:15;37.90;;;14.23;;
422;SDS011;198;48.752;9.180;2024-03-08T07:33:44;42.47;;;15.17;;
422;SDS011;198;48.752;9.180;2024-03-08T07:36:09;31.47;;;14.37;;
422;SDS011;198;48.752;9.180;2024-03-08T07:38:35;44.00;;;17.50;;
422;SDS011;198;48.752;9.180;2024-03-08T07:41:01;37.43;;;13.60;;
422;SDS011;198;48.752;9.180;2024-03-08T07:43:26;40.23;;;16.50;;
422;SDS011;198;48.752;9.180;2024-03-08T07:45:52;41.73;;;15.93;;
422;SDS011;198;48.752;9.180;2024-03-08T07:48:20;46.83;;;16.87;;
422;SDS011;198;48.752;9.180;2024-03-08T07:50:46;36.97;;;15.43;;
422;SDS011;198;48.752;9.180;2024-03-08T07:53:11;38.70;;;15.07;;
422;SDS011;198;48.752;9.180;2024-03-08T07:55:37;40.27;;;14.63;;
422;SDS011;198;48.752;9.180;2024-03-08T07:58:04;41.13;;;13.97;;
422;SDS011;198;48.752;9.180;2024-03-08T08:00:31;39.97;;;14.93;;
422;SDS011;198;48.752;9.180;2024-03-08T08:02:56;36.57;;;14.33;;
422;SDS011;198;48.752;9.180;2024-03-08T08:05:22;39.30;;;16.67;;
422;SDS011;198;48.752;9.180;2024-03-08T08:07:47;39.47;;;16.73;;
422;SDS011;198;48.752;9.180;2024-03-08T08:10:14;37.53;;;15.70;;
422;SDS011;198;48.752;9.180;2024-03-08T08:12:46;35.53;;;14.70;;
422;SDS011;198;48.752;9.180;2024-03-08T08:15:13;33.20;;;14.40;;
422;SDS011;198;48.752;9.180;2024-03-08T08:17:39;35.27;;;14.73;;
422;SDS011;198;48.752;9.180;2024-03-08T08:20:09;31.40;;;14.53;;
422;SDS011;198;48.752;9.180;2024-03-08T08:22:36;33.60;;;14.80;;
422;SDS011;198;48.752;9.180;2024-03-08T08:25:03;37.33;;;14.90;;
422;SDS011;198;48.752;9.180;2024-03-08T08:27:29;31.17;;;14.10;;
422;SDS011;198;48.752;9.180;2024-03-08T08:29:54;34.97;;;14.60;;
422;SDS011;198;48.752;9.180;2024-03-08T08:32:20;35.67;;;13.60;;
422;SDS011;198;48.752;9.180;2024-03-08T08:34:46;38.53;;;14.93;;
422;SDS011;198;48.752;9.180;2024-03-08T08:37:12;34.50;;;15.90;;
422;SDS011;198;48.752;9.180;2024-03-08T08:39:38;41.13;;;15.07;;
422;SDS011;198;48.752;9.180;2024-03-08T08:42:04;36.43;;;14.30;;
422;SDS011;198;48.752;9.180;2024-03-08T08:44:29;27.70;;;11.60;;
422;SDS011;198;48.752;9.180;2024-03-08T08:46:56;31.80;;;13.60;;
422;SDS011;198;48.752;9.180;2024-03-08T08:49:22;33.73;;;14.00;;
422;SDS011;198;48.752;9.180;2024-03-08T08:51:49;31.83;;;13.83;;
422;SDS011;198;48.752;9.180;2024-03-08T08:54:15;32.67;;;12.70;;
422;SDS011;198;48.752;9.180;2024-03-08T08:56:41;41.30;;;14.70;;
422;SDS011;198;48.752;9.180;2024-03-08T08:59:09;35.93;;;14.97;;
422;SDS011;198;48.752;9.180;2024-03-08T09:01:34;39.43;;;13.93;;
422;SDS011;198;48.752;9.180;2024-03-08T09:04:01;42.67;;;15.17;;
422;SDS011;198;48.752;9.180;2024-03-08T09:06:26;30.20;;;13.03;;
422;SDS011;198;48.752;9.180;2024-03-08T09:08:52;39.10;;;15.20;;
422;SDS011;198;48.752;9.180;2024-03-08T09:11:17;36.57;;;14.33;;
422;SDS011;198;48.752;9.180;2024-03-08T09:13:46;34.40;;;13.63;;
422;SDS011;198;48.752;9.180;2024-03-08T09:16:12;28.07;;;12.90;;
422;SDS011;198;48.752;9.180;2024-03-08T09:18:37;32.37;;;13.13;;
422;SDS011;198;48.752;9.180;2024-03-08T09:21:03;30.50;;;14.20;;
422;SDS011;198;48.752;9.180;2024-03-08T09:23:30;33.20;;;12.60;;
422;SDS011;198;48.752;9.180;2024-03-08T09:25:58;29.53;;;13.07;;
422;SDS011;198;48.752;9.180;2024-03-08T09:28:24;30.70;;;13.53;;
422;SDS011;198;48.752;9.180;2024-03-08T09:30:50;33.03;;;13.53;;
422;SDS011;198;48.752;9.180;2024-03-08T09:33:15;34.20;;;12.90;;
422;SDS011;198;48.752;9.180;2024-03-08T09:35:44;28.73;;;12.23;;
422;SDS011;198;48.752;9.180;2024-03-08T09:38:11;32.67;;;13.10;;
422;SDS011;198;48.752;9.180;2024-03-08T09:40:38;27.10;;;12.70;;
422;SDS011;198;48.752;9.180;2024-03-08T09:43:06;38.80;;;14.60;;
422;SDS011;198;48.752;9.180;2024-03-08T09:45:32;33.17;;;13.30;;
422;SDS011;198;48.752;9.180;2024-03-08T09:48:04;30.40;;;14.17;;
422;SDS011;198;48.752;9.180;2024-03-08T09:50:31;34.53;;;12.97;;
422;SDS011;198;48.752;9.180;2024-03-08T09:52:57;37.10;;;14.63;;
422;SDS011;198;48.752;9.180;2024-03-08T09:55:23;34.80;;;13.77;;
422;SDS011;198;48.752;9.180;2024-03-08T09:57:51;35.00;;;13.60;;
422;SDS011;198;48.752;9.180;2024-03-08T10:00:36;28.40;;;12.90;;
422;SDS011;198;48.752;9.180;2024-03-08T10:03:02;29.30;;;13.03;;
422;SDS011;198;48.752;9.180;2024-03-08T10:05:28;30.67;;;11.87;;
422;SDS011;198;48.752;9.180;2024-03-08T10:07:55;28.30;;;11.97;;
422;SDS011;198;48.752;9.180;2024-03-08T10:10:20;27.53;;;12.30;;
422;SDS011;198;48.752;9.180;2024-03-08T10:12:46;30.77;;;12.90;;
422;SDS011;198;48.752;9.180;2024-03-08T10:15:15;31.90;;;12.30;;
422;SDS011;198;48.752;9.180;2024-03-08T10:17:41;25.87;;;13.13;;
422;SDS011;198;48.752;9.180;2024-03-08T10:20:17;29.60;;;12.67;;
422;SDS011;198;48.752;9.180;2024-03-08T10:22:43;27.73;;;11.30;;
422;SDS011;198;48.752;9.180;2024-03-08T10:25:10;30.33;;;12.53;;
422;SDS011;198;48.752;9.180;2024-03-08T10:27:37;29.47;;;13.27;;
422;SDS011;198;48.752;9.180;2024-03-08T10:30:04;28.50;;;12.97;;
422;SDS011;198;48.752;9.180;2024-03-08T10:32:35;40.03;;;13.17;;
422;SDS011;198;48.752;9.180;2024-03-08T10:35:00;29.77;;;12.43;;
422;SDS011;198;48.752;9.180;2024-03-08T10:37:26;24.40;;;12.07;;
422;SDS011;198;48.752;9.180;2024-03-08T10:40:02;25.97;;;12.17;;
422;SDS011;198;48.752;9.180;2024-03-08T10:42:40;36.77;;;12.67;;
422;SDS011;198;48.752;9.180;2024-03-08T10:45:19;27.70;;;12.10;;
422;SDS011;198;48.752;9.180;2024-03-08T10:47:49;31.67;;;12.27;;
422;SDS011;198;48.752;9.180;2024-03-08T10:50:28;25.27;;;12.33;;
422;SDS011;198;48.752;9.180;2024-03-08T10:52:54;38.50;;;14.30;;
422;SDS011;198;48.752;9.180;2024-03-08T10:55:22;30.47;;;13.20;;
422;SDS011;198;48.752;9.180;2024-03-08T10:57:51;28.30;;;12.60;;
422;SDS011;198;48.752;9.180;2024-03-08T11:00:18;28.13;;;11.60;;
422;SDS011;198;48.752;9.180;2024-03-08T11:02:51;29.43;;;11.67;;
422;SDS011;198;48.752;9.180;2024-03-08T11:05:31;25.37;;;11.80;;
422;SDS011;198;48.752;9.180;2024-03-08T11:08:24;24.67;;;11.83;;
422;SDS011;198;48.752;9.180;2024-03-08T11:10:49;24.70;;;11.93;;
422;SDS011;198;48.752;9.180;2024-03-08T11:13:36;25.50;;;12.57;;
422;SDS011;198;48.752;9.180;2024-03-08T11:16:09;25.60;;;12.10;;
422;SDS011;198;48.752;9.180;2024-03-08T11:18:36;28.10;;;11.93;;
422;SDS011;198;48.752;9.180;2024-03-08T11:21:09;28.47;;;13.30;;
422;SDS011;198;48.752;9.180;2024-03-08T11:23:37;26.87;;;12.13;;
422;SDS011;198;48.752;9.180;2024-03-08T11:26:17;27.50;;;12.20;;
422;SDS011;198;48.752;9.180;2024-03-08T11:28:46;21.23;;;10.50;;
422;SDS011;198;48.752;9.180;2024-03-08T11:33:39;24.77;;;10.90;;
422;SDS011;198;48.752;9.180;2024-03-08T11:38:47;21.20;;;11.30;;
422;SDS011;198;48.752;9.180;2024-03-08T11:41:14;25.10;;;12.10;;
422;SDS011;198;48.752;9.180;2024-03-08T11:43:40;22.37;;;10.40;;
422;SDS011;198;48.752;9.180;2024-03-08T11:46:12;23.50;;;11.87;;
422;SDS011;198;48.752;9.180;2024-03-08T11:48:39;22.40;;;11.10;;
422;SDS011;198;48.752;9.180;2024-03-08T11:51:09;21.20;;;10.30;;
422;SDS011;198;48.752;9.180;2024-03-08T11:53:36;24.23;;;12.17;;
422;SDS011;198;48.752;9.180;2024-03-08T11:56:07;21.07;;;10.10;;
422;SDS011;198;48.752;9.180;2024-03-08T11:58:37;23.10;;;11.77;;
422;SDS011;198;48.752;9.180;2024-03-08T12:01:06;24.27;;;11.77;;
422;SDS011;198;48.752;9.180;2024-03-08T12:03:37;24.10;;;13.30;;
422;SDS011;198;48.752;9.180;2024-03-08T12:06:03;28.60;;;13.27;;
422;SDS011;198;48.752;9.180;2024-03-08T12:08:32;28.27;;;12.47;;
422;SDS011;198;48.752;9.180;2024-03-08T12:10:57;22.70;;;11.00;;
422;SDS011;198;48.752;9.180;2024-03-08T12:13:29;24.93;;;12.60;;
422;SDS011;198;48.752;9.180;2024-03-08T12:15:57;18.60;;;9.60;;
422;SDS011;198;48.752;9.180;2024-03-08T12:18:26;18.63;;;9.93;;
422;SDS011;198;48.752;9.180;2024-03-08T12:21:03;17.20;;;9.13;;
422;SDS011;198;48.752;9.180;2024-03-08T12:23:36;26.67;;;12.90;;
422;SDS011;198;48.752;9.180;2024-03-08T12:28:40;20.07;;;11.73;;
422;SDS011;198;48.752;9.180;2024-03-08T12:31:08;17.80;;;9.90;;
422;SDS011;198;48.752;9.180;2024-03-08T12:33:37;18.03;;;10.40;;
422;SDS011;198;48.752;9.180;2024-03-08T12:36:14;18.97;;;10.37;;
422;SDS011;198;48.752;9.180;2024-03-08T12:38:43;17.70;;;9.33;;
422;SDS011;198;48.752;9.180;2024-03-08T12:41:09;21.47;;;12.40;;
422;SDS011;198;48.752;9.180;2024-03-08T12:43:34;18.13;;;10.70;;
422;SDS011;198;48.752;9.180;2024-03-08T12:46:00;22.33;;;12.40;;
422;SDS011;198;48.752;9.180;2024-03-08T12:48:25;25.27;;;13.67;;
422;SDS011;198;48.752;9.180;2024-03-08T12:50:51;21.13;;;12.17;;
422;SDS011;198;48.752;9.180;2024-03-08T12:53:19;22.90;;;11.77;;
422;SDS011;198;48.752;9.180;2024-03-08T12:55:45;23.67;;;13.43;;
422;SDS011;198;48.752;9.180;2024-03-08T12:58:11;20.43;;;12.00;;
422;SDS011;198;48.752;9.180;2024-03-08T13:00:36;25.20;;;14.23;;
422;SDS011;198;48.752;9.180;2024-03-08T13:03:02;20.80;;;10.30;;
422;SDS011;198;48.752;9.180;2024-03-08T13:05:28;23.03;;;12.77;;
422;SDS011;198;48.752;9.180;2024-03-08T13:07:54;23.70;;;12.47;;
422;SDS011;198;48.752;9.180;2024-03-08T13:10:20;18.47;;;9.93;;
422;SDS011;198;48.752;9.180;2024-03-08T13:12:46;18.97;;;10.60;;
422;SDS011;198;48.752;9.180;2024-03-08T13:15:11;19.93;;;11.27;;
422;SDS011;198;48.752;9.180;2024-03-08T13:17:44;15.17;;;8.50;;
422;SDS011;198;48.752;9.180;2024-03-08T13:20:11;18.43;;;10.40;;
422;SDS011;198;48.752;9.180;2024-03-08T13:22:43;15.40;;;9.00;;
422;SDS011;198;48.752;9.180;2024-03-08T13:25:10;22.03;;;11.90;;
422;SDS011;198;48.752;9.180;2024-03-08T13:27:41;21.67;;;13.63;;
422;SDS011;198;48.752;9.180;2024-03-08T13:30:07;19.57;;;11.50;;
422;SDS011;198;48.752;9.180;2024-03-08T13:32:39;18.40;;;11.77;;
422;SDS011;198;48.752;9.180;2024-03-08T13:35:08;18.73;;;10.77;;
422;SDS011;198;48.752;9.180;2024-03-08T13:37:37;21.50;;;12.10;;
422;SDS011;198;48.752;9.180;2024-03-08T13:40:07;22.53;;;13.63;;
422;SDS011;198;48.752;9.180;2024-03-08T13:42:38;23.30;;;12.80;;
422;SDS011;198;48.752;9.180;2024-03-08T13:45:08;16.53;;;10.97;;
422;SDS011;198;48.752;9.180;2024-03-08T13:47:37;22.30;;;12.47;;
422;SDS011;198;48.752;9.180;2024-03-08T13:50:07;21.13;;;12.10;;
422;SDS011;198;48.752;9.180;2024-03-08T13:52:36;16.37;;;9.47;;
422;SDS011;198;48.752;9.180;2024-03-08T13:55:03;23.50;;;11.63;;
422;SDS011;198;48.752;9.180;2024-03-08T13:57:30;19.80;;;11.90;;
422;SDS011;198;48.752;9.180;2024-03-08T13:59:56;22.90;;;13.13;;
422;SDS011;198;48.752;9.180;2024-03-08T14:02:22;17.30;;;10.50;;
422;SDS011;198;48.752;9.180;2024-03-08T14:04:52;24.33;;;12.30;;
422;SDS011;198;48.752;9.180;2024-03-08T14:07:21;17.33;;;10.20;;
422;SDS011;198;48.752;9.180;2024-03-08T14:09:48;18.50;;;9.53;;
422;SDS011;198;48.752;9.180;2024-03-08T14:12:14;20.43;;;10.83;;
422;SDS011;198;48.752;9.180;2024-03-08T14:14:40;17.33;;;11.63;;
422;SDS011;198;48.752;9.180;2024-03-08T14:17:07;18.70;;;10.30;;
422;SDS011;198;48.752;9.180;2024-03-08T14:19:34;20.63;;;12.00;;
422;SDS011;198;48.752;9.180;2024-03-08T14:22:00;19.63;;;11.30;;
422;SDS011;198;48.752;9.180;2024-03-08T14:24:29;23.60;;;13.33;;
422;SDS011;198;48.752;9.180;2024-03-08T14:26:55;20.67;;;11.20;;
422;SDS011;198;48.752;9.180;2024-03-08T14:29:20;24.63;;;14.10;;
422;SDS011;198;48.752;9.180;2024-03-08T14:31:46;18.47;;;10.70;;
422;SDS011;198;48.752;9.180;2024-03-08T14:34:11;23.80;;;13.47;;
422;SDS011;198;48.752;9.180;2024-03-08T14:36:39;20.60;;;12.33;;
422;SDS011;198;48.752;9.180;2024-03-08T14:39:05;26.97;;;13.00;;
422;SDS011;198;48.752;9.180;2024-03-08T14:41:32;27.40;;;14.30;;
422;SDS011;198;48.752;9.180;2024-03-08T14:43:58;19.90;;;11.23;;
422;SDS011;198;48.752;9.180;2024-03-08T14:46:24;23.87;;;12.60;;
422;SDS011;198;48.752;9.180;2024-03-08T14:48:50;24.57;;;12.60;;
422;SDS011;198;48.752;9.180;2024-03-08T14:51:19;25.20;;;13.33;;
422;SDS011;198;48.752;9.180;2024-03-08T14:53:47;23.33;;;12.83;;
422;SDS011;198;48.752;9.180;2024-03-08T14:56:14;24.47;;;13.00;;
422;SDS011;198;48.752;9.180;2024-03-08T14:58:44;25.40;;;12.07;;
422;SDS011;198;48.752;9.180;2024-03-08T15:01:11;28.50;;;14.27;;
422;SDS011;198;48.752;9.180;2024-03-08T15:03:39;25.97;;;13.70;;
422;SDS011;198;48.752;9.180;2024-03-08T15:06:05;25.53;;;13.77;;
422;SDS011;198;48.752;9.180;2024-03-08T15:08:37;26.10;;;14.67;;
422;SDS011;198;48.752;9.180;2024-03-08T15:11:04;25.50;;;12.83;;
422;SDS011;198;48.752;9.180;2024-03-08T15:13:31;19.63;;;10.63;;
422;SDS011;198;48.752;9.180;2024-03-08T15:16:13;23.87;;;12.23;;
422;SDS011;198;48.752;9.180;2024-03-08T15:18:42;20.00;;;10.37;;
422;SDS011;198;48.752;9.180;2024-03-08T15:21:11;22.67;;;10.80;;
422;SDS011;198;48.752;9.180;2024-03-08T15:23:42;25.90;;;12.53;;